KIRS Airport (Kirsch Muni) Information

FAA: IRS - ICAO: KIRS

KIRS Airport Location

State Michigan
County St Joseph
City Sturgis
KIRS Airport is 2 miles northwest of Sturgis, MI.
Latitude 41-48-47.8354N
Longitude 085-26-20.2586W
Elevation 924ft

KIRS Airport METARs

METAR KIRS 240955Z AUTO 24007KT 10SM CLR 10/08 A2994 RMK AO2 T00970081 P0001
Altimeter 29.94"
Temperature 9.7°C (49.5°F)
Wind 240° at 7KT
Clouds Skies are clear.
Visibility 10.0mi
Time observed: 2021-09-24T09:55:00Z

KIRS Airport Details

Status Operational
Activation April 1940
Ownership Public
Usage Public
Chart CHICAGO
ATC on-site No
Beacon schedule sunset-sunrise
Beacon color clear green

KIRS Airport Contacts

Owner CITY OF STURGIS
Owner address 130 N. NOTTAWA, STURGIS, MI 49091-1433
Owner phone 269-651-2321
Manager MARK W. STRIETER
Manager address 12685 FLYNN RD, SAWYER, MI 49125
Manager phone (214) 673-7827

KIRS Airport (Kirsch Muni) Radio Frequencies

KIRS (Airport) Radio Frequencies

UNICOM 123.05
Common traffic advisory frequency (CTAF) 123.05